Mário de Almeida Franco Airport

SBUR · 米纳斯吉拉斯州, 巴西

罗盘
风向 的 风向 040° Mário de Almeida Franco Airport 17/35
风: 3 kt, 1 beaufort

1 kt

3 kt
改变
0 ft 1.000 2.000 3.000 4.000 5.000
CAVOK
METAR SBUR 270000Z 04003KT CAVOK 28/19 Q1017

METAR Mário de Almeida Franco Airport - SBUR/UBA

Mário de Almeida Franco Airport是,巴西中的中型机场。 该机场位于纬度-19,76501和经度-47,96477。 该机场有一条跑道: 17/35. 本场的ICAO机场代码为SBUR。 该机场的IATA代码为UBA。 机场在Brasilia FIR中。

该航空气象观测是针对Mário de Almeida Franco Airport在2024年2月26日 21:00, 当地时间进行的。

机场观察

风向为040°,速度为3 kt。

天气为CAVOK。这意味着在5.000 ft或MSA(最低安全高度)以下(以较高者为准)以下没有云。这也意味着没有观测到积雨云或高耸的积云,可见度为10 km 或者更多或更高。此外,不会有雾,降雨或其他重要天气。

温度和风寒是28 °C。 热指数为29。 露点为19 °C,相对湿度为58%。 海平面上的气压为1017 hPa (QNH)。

白天

今天,太阳从06:08升起,在18:40降落。 这适用于Mário de Almeida Franco Airport,世界夏令时可能有所不同。 当地时间与世界标准时间之间的时差为-3 小时。 当前,没有夏令时有效。

公司介绍

我们没有关于这个机场的公司信息。

体会

到Vliegles.nl去找飞行课程,跳伞和其他飞行体验。 浏览页面,了解Mário de Almeida Franco Airport附近所有可用的活动。 你也可以使用搜索功能来寻找你所在地附近的特定飞行课程、跳伞或其他飞行体验。

跑道

Id 标题 侧风 逆风 侧风 %
17/35 149°-329° 3 kt 95 %

逆风成分最大的方向会被突出显示,并用于横风计算。 这并不一定意味着这个方向在使用。

温度 & 天气

温度 28 °C
露点 19 °C
相对湿度 58%
热度指数 29 °C
Kp-index 3 (0-9)

白天

日出
06:08 (8:05)
中午
12:24
日落
18:40

小工具

你想在你的网站上有一个关于Mário de Almeida Franco Airport的当前航空天气(METAR)的小部件吗?

显示HTML代码
?>